TimeCDT,TemperatureF,Dew PointF,Humidity,Sea Level PressureIn,VisibilityMPH,Wind Direction,Wind SpeedMPH,Gust SpeedMPH,PrecipitationIn,Events,Conditions,WindDirDegrees,DateUTC
12:53 AM,73.0,71.1,93,29.95,5.0,NW,4.6,-,N/A,,Overcast,320,2013-09-13 05:53:00
1:53 AM,72.0,70.0,93,29.94,5.0,WNW,3.5,-,N/A,,Scattered Clouds,300,2013-09-13 06:53:00
2:53 AM,70.0,66.9,90,29.94,7.0,NNW,6.9,-,N/A,,Partly Cloudy,330,2013-09-13 07:53:00
3:53 AM,68.0,63.0,84,29.95,10.0,North,5.8,-,N/A,,Clear,350,2013-09-13 08:53:00
4:53 AM,66.0,61.0,84,29.96,10.0,NNW,3.5,-,N/A,,Clear,330,2013-09-13 09:53:00
5:53 AM,64.9,60.1,84,29.97,10.0,NNW,4.6,-,N/A,,Scattered Clouds,330,2013-09-13 10:53:00
6:53 AM,64.0,59.0,84,29.99,10.0,North,5.8,-,N/A,,Scattered Clouds,350,2013-09-13 11:53:00
7:53 AM,66.0,60.1,81,30.00,10.0,North,8.1,-,N/A,,Scattered Clouds,360,2013-09-13 12:53:00
8:53 AM,68.0,59.0,73,30.01,10.0,North,10.4,-,N/A,,Scattered Clouds,10,2013-09-13 13:53:00
9:53 AM,71.1,60.1,68,30.01,10.0,North,10.4,-,N/A,,Scattered Clouds,10,2013-09-13 14:53:00
10:53 AM,73.0,59.0,61,30.01,10.0,NE,12.7,-,N/A,,Scattered Clouds,40,2013-09-13 15:53:00
11:53 AM,75.0,55.9,51,30.01,10.0,NE,15.0,19.6,N/A,,Scattered Clouds,40,2013-09-13 16:53:00
12:53 PM,77.0,57.0,50,29.99,10.0,NNE,11.5,19.6,N/A,,Scattered Clouds,30,2013-09-13 17:53:00
1:53 PM,75.9,52.0,43,29.98,10.0,North,10.4,21.9,N/A,,Scattered Clouds,10,2013-09-13 18:53:00
2:53 PM,75.9,48.9,38,29.97,10.0,NNE,10.4,-,N/A,,Scattered Clouds,20,2013-09-13 19:53:00
3:53 PM,75.0,48.9,40,29.97,10.0,NNE,12.7,-,N/A,,Scattered Clouds,20,2013-09-13 20:53:00
4:53 PM,75.0,50.0,41,29.96,10.0,North,15.0,-,N/A,,Scattered Clouds,360,2013-09-13 21:53:00
5:53 PM,73.0,50.0,44,29.98,10.0,NNE,13.8,-,N/A,,Scattered Clouds,20,2013-09-13 22:53:00
6:53 PM,69.1,51.1,53,29.98,10.0,North,11.5,-,N/A,,Partly Cloudy,10,2013-09-13 23:53:00
7:53 PM,66.0,51.1,59,29.99,10.0,NNE,9.2,-,N/A,,Clear,20,2013-09-14 00:53:00
8:53 PM,64.9,51.1,61,30.01,10.0,North,10.4,-,N/A,,Clear,10,2013-09-14 01:53:00
9:53 PM,62.1,50.0,65,30.03,10.0,North,8.1,-,N/A,,Clear,10,2013-09-14 02:53:00
10:53 PM,60.1,50.0,69,30.04,10.0,NNE,9.2,-,N/A,,Clear,20,2013-09-14 03:53:00
11:53 PM,57.9,50.0,75,30.03,10.0,NNE,8.1,-,N/A,,Clear,20,2013-09-14 04:53:00